sensor_id;sensor_type;location;lat;lon;timestamp;temperature;humidity
9847;DHT22;68671;50.084;8.794;2023-07-20T00:01:35;22.70;99.80
9847;DHT22;68671;50.084;8.794;2023-07-20T00:04:03;22.70;99.90
9847;DHT22;68671;50.084;8.794;2023-07-20T00:06:30;22.70;99.90
9847;DHT22;68671;50.084;8.794;2023-07-20T00:08:57;22.70;99.90
9847;DHT22;68671;50.084;8.794;2023-07-20T00:11:26;22.70;99.90
9847;DHT22;68671;50.084;8.794;2023-07-20T00:13:53;22.70;99.90
9847;DHT22;68671;50.084;8.794;2023-07-20T00:16:21;22.70;99.90
9847;DHT22;68671;50.084;8.794;2023-07-20T00:18:48;22.70;99.90
9847;DHT22;68671;50.084;8.794;2023-07-20T00:21:15;22.70;99.90
9847;DHT22;68671;50.084;8.794;2023-07-20T00:23:42;22.70;99.90
9847;DHT22;68671;50.084;8.794;2023-07-20T00:26:09;22.70;99.90
9847;DHT22;68671;50.084;8.794;2023-07-20T00:28:36;22.70;99.90
9847;DHT22;68671;50.084;8.794;2023-07-20T00:31:04;22.70;99.90
9847;DHT22;68671;50.084;8.794;2023-07-20T00:33:32;22.70;99.90
9847;DHT22;68671;50.084;8.794;2023-07-20T00:35:59;22.60;99.90
9847;DHT22;68671;50.084;8.794;2023-07-20T00:38:26;22.60;99.90
9847;DHT22;68671;50.084;8.794;2023-07-20T00:40:53;22.60;99.90
9847;DHT22;68671;50.084;8.794;2023-07-20T00:43:20;22.60;99.90
9847;DHT22;68671;50.084;8.794;2023-07-20T00:45:47;22.50;99.90
9847;DHT22;68671;50.084;8.794;2023-07-20T00:48:14;22.50;99.90
9847;DHT22;68671;50.084;8.794;2023-07-20T00:50:43;22.50;99.90
9847;DHT22;68671;50.084;8.794;2023-07-20T00:53:10;22.50;99.90
9847;DHT22;68671;50.084;8.794;2023-07-20T00:55:37;22.40;99.90
9847;DHT22;68671;50.084;8.794;2023-07-20T00:58:04;22.40;99.90
9847;DHT22;68671;50.084;8.794;2023-07-20T01:00:32;22.40;99.90
9847;DHT22;68671;50.084;8.794;2023-07-20T01:02:59;22.40;99.90
9847;DHT22;68671;50.084;8.794;2023-07-20T01:05:36;22.40;99.90
9847;DHT22;68671;50.084;8.794;2023-07-20T01:08:13;22.30;99.90
9847;DHT22;68671;50.084;8.794;2023-07-20T01:10:46;22.40;99.90
9847;DHT22;68671;50.084;8.794;2023-07-20T01:13:17;22.30;99.90
9847;DHT22;68671;50.084;8.794;2023-07-20T01:15:49;22.40;99.90
9847;DHT22;68671;50.084;8.794;2023-07-20T01:18:17;22.40;99.90
9847;DHT22;68671;50.084;8.794;2023-07-20T01:20:44;22.40;99.90
9847;DHT22;68671;50.084;8.794;2023-07-20T01:23:46;22.40;99.90
9847;DHT22;68671;50.084;8.794;2023-07-20T01:26:33;22.40;99.90
9847;DHT22;68671;50.084;8.794;2023-07-20T01:29:16;22.40;99.90
9847;DHT22;68671;50.084;8.794;2023-07-20T01:31:47;22.30;99.90
9847;DHT22;68671;50.084;8.794;2023-07-20T01:34:17;22.30;99.90
9847;DHT22;68671;50.084;8.794;2023-07-20T01:36:46;22.30;99.90
9847;DHT22;68671;50.084;8.794;2023-07-20T01:39:15;22.30;99.90
9847;DHT22;68671;50.084;8.794;2023-07-20T01:41:42;22.20;99.90
9847;DHT22;68671;50.084;8.794;2023-07-20T01:44:09;22.20;99.90
9847;DHT22;68671;50.084;8.794;2023-07-20T01:46:37;22.20;99.90
9847;DHT22;68671;50.084;8.794;2023-07-20T01:49:08;22.20;99.90
9847;DHT22;68671;50.084;8.794;2023-07-20T01:51:35;22.20;99.90
9847;DHT22;68671;50.084;8.794;2023-07-20T01:54:02;22.20;99.90
9847;DHT22;68671;50.084;8.794;2023-07-20T01:56:29;22.20;99.90
9847;DHT22;68671;50.084;8.794;2023-07-20T01:58:55;22.20;99.90
9847;DHT22;68671;50.084;8.794;2023-07-20T02:01:22;22.20;99.90
9847;DHT22;68671;50.084;8.794;2023-07-20T02:03:49;22.20;99.90
9847;DHT22;68671;50.084;8.794;2023-07-20T02:06:18;22.20;99.90
9847;DHT22;68671;50.084;8.794;2023-07-20T02:08:45;22.20;99.90
9847;DHT22;68671;50.084;8.794;2023-07-20T02:11:11;22.20;99.90
9847;DHT22;68671;50.084;8.794;2023-07-20T02:13:38;22.20;99.90
9847;DHT22;68671;50.084;8.794;2023-07-20T02:16:05;22.20;99.90
9847;DHT22;68671;50.084;8.794;2023-07-20T02:18:32;22.20;99.90
9847;DHT22;68671;50.084;8.794;2023-07-20T02:21:00;22.20;99.90
9847;DHT22;68671;50.084;8.794;2023-07-20T02:23:29;22.20;99.90
9847;DHT22;68671;50.084;8.794;2023-07-20T02:25:56;22.20;99.90
9847;DHT22;68671;50.084;8.794;2023-07-20T02:28:22;22.20;99.90
9847;DHT22;68671;50.084;8.794;2023-07-20T02:30:50;22.20;99.90
9847;DHT22;68671;50.084;8.794;2023-07-20T02:33:16;22.20;99.90
9847;DHT22;68671;50.084;8.794;2023-07-20T02:35:43;22.20;99.90
9847;DHT22;68671;50.084;8.794;2023-07-20T02:38:10;22.20;99.90
9847;DHT22;68671;50.084;8.794;2023-07-20T02:40:39;22.10;99.90
9847;DHT22;68671;50.084;8.794;2023-07-20T02:43:05;22.10;99.90
9847;DHT22;68671;50.084;8.794;2023-07-20T02:45:32;22.00;99.90
9847;DHT22;68671;50.084;8.794;2023-07-20T02:47:59;22.00;99.90
9847;DHT22;68671;50.084;8.794;2023-07-20T02:50:26;21.90;99.90
9847;DHT22;68671;50.084;8.794;2023-07-20T02:52:53;21.90;99.90
9847;DHT22;68671;50.084;8.794;2023-07-20T02:55:20;21.90;99.90
9847;DHT22;68671;50.084;8.794;2023-07-20T02:57:48;21.90;99.90
9847;DHT22;68671;50.084;8.794;2023-07-20T03:02:58;21.80;99.90
9847;DHT22;68671;50.084;8.794;2023-07-20T03:05:25;21.80;99.90
9847;DHT22;68671;50.084;8.794;2023-07-20T03:07:53;21.80;99.90
9847;DHT22;68671;50.084;8.794;2023-07-20T03:10:20;21.70;99.90
9847;DHT22;68671;50.084;8.794;2023-07-20T03:12:48;21.70;99.90
9847;DHT22;68671;50.084;8.794;2023-07-20T03:15:15;21.70;99.90
9847;DHT22;68671;50.084;8.794;2023-07-20T03:17:42;21.70;99.90
9847;DHT22;68671;50.084;8.794;2023-07-20T03:20:10;21.70;99.90
9847;DHT22;68671;50.084;8.794;2023-07-20T03:22:38;21.70;99.90
9847;DHT22;68671;50.084;8.794;2023-07-20T03:25:06;21.60;99.90
9847;DHT22;68671;50.084;8.794;2023-07-20T03:27:33;21.60;99.90
9847;DHT22;68671;50.084;8.794;2023-07-20T03:30:02;21.60;99.90
9847;DHT22;68671;50.084;8.794;2023-07-20T03:32:28;21.50;99.90
9847;DHT22;68671;50.084;8.794;2023-07-20T03:34:55;21.50;99.90
9847;DHT22;68671;50.084;8.794;2023-07-20T03:37:22;21.50;99.90
9847;DHT22;68671;50.084;8.794;2023-07-20T03:39:49;21.50;99.90
9847;DHT22;68671;50.084;8.794;2023-07-20T03:42:16;21.50;99.90
9847;DHT22;68671;50.084;8.794;2023-07-20T03:44:43;21.50;99.90
9847;DHT22;68671;50.084;8.794;2023-07-20T03:47:11;21.50;99.90
9847;DHT22;68671;50.084;8.794;2023-07-20T03:49:38;21.50;99.90
9847;DHT22;68671;50.084;8.794;2023-07-20T03:52:06;21.50;99.90
9847;DHT22;68671;50.084;8.794;2023-07-20T03:54:32;21.50;99.90
9847;DHT22;68671;50.084;8.794;2023-07-20T03:56:59;21.50;99.90
9847;DHT22;68671;50.084;8.794;2023-07-20T03:59:27;21.50;99.90
9847;DHT22;68671;50.084;8.794;2023-07-20T04:01:54;21.50;99.90
9847;DHT22;68671;50.084;8.794;2023-07-20T04:04:22;21.50;99.90
9847;DHT22;68671;50.084;8.794;2023-07-20T04:06:49;21.50;99.90
9847;DHT22;68671;50.084;8.794;2023-07-20T04:09:16;21.40;99.90
9847;DHT22;68671;50.084;8.794;2023-07-20T04:11:43;21.40;99.90
9847;DHT22;68671;50.084;8.794;2023-07-20T04:14:10;21.30;99.90
9847;DHT22;68671;50.084;8.794;2023-07-20T04:16:37;21.30;99.90
9847;DHT22;68671;50.084;8.794;2023-07-20T04:19:04;21.30;99.90
9847;DHT22;68671;50.084;8.794;2023-07-20T04:21:32;21.30;99.90
9847;DHT22;68671;50.084;8.794;2023-07-20T04:23:59;21.20;99.90
9847;DHT22;68671;50.084;8.794;2023-07-20T04:26:26;21.30;99.90
9847;DHT22;68671;50.084;8.794;2023-07-20T04:28:53;21.20;99.90
9847;DHT22;68671;50.084;8.794;2023-07-20T04:31:20;21.20;99.90
9847;DHT22;68671;50.084;8.794;2023-07-20T04:33:47;21.20;99.90
9847;DHT22;68671;50.084;8.794;2023-07-20T04:36:14;21.20;99.90
9847;DHT22;68671;50.084;8.794;2023-07-20T04:38:46;21.20;99.90
9847;DHT22;68671;50.084;8.794;2023-07-20T04:41:13;21.20;99.90
9847;DHT22;68671;50.084;8.794;2023-07-20T04:43:41;21.20;99.90
9847;DHT22;68671;50.084;8.794;2023-07-20T04:46:08;21.10;99.90
9847;DHT22;68671;50.084;8.794;2023-07-20T04:48:36;21.20;99.90
9847;DHT22;68671;50.084;8.794;2023-07-20T04:51:03;21.20;99.90
9847;DHT22;68671;50.084;8.794;2023-07-20T04:53:30;21.20;99.90
9847;DHT22;68671;50.084;8.794;2023-07-20T04:55:59;21.20;99.90
9847;DHT22;68671;50.084;8.794;2023-07-20T04:58:26;21.30;99.90
9847;DHT22;68671;50.084;8.794;2023-07-20T05:00:53;21.30;99.90
9847;DHT22;68671;50.084;8.794;2023-07-20T05:03:20;21.30;99.90
9847;DHT22;68671;50.084;8.794;2023-07-20T05:05:47;21.40;99.90
9847;DHT22;68671;50.084;8.794;2023-07-20T05:08:14;21.40;99.90
9847;DHT22;68671;50.084;8.794;2023-07-20T05:10:42;21.50;99.90
9847;DHT22;68671;50.084;8.794;2023-07-20T05:13:10;21.60;99.90
9847;DHT22;68671;50.084;8.794;2023-07-20T05:15:37;21.60;99.90
9847;DHT22;68671;50.084;8.794;2023-07-20T05:18:04;21.60;99.90
9847;DHT22;68671;50.084;8.794;2023-07-20T05:20:32;21.60;99.90
9847;DHT22;68671;50.084;8.794;2023-07-20T05:23:00;21.50;99.90
9847;DHT22;68671;50.084;8.794;2023-07-20T05:25:27;21.50;99.90
9847;DHT22;68671;50.084;8.794;2023-07-20T05:27:53;21.40;99.90
9847;DHT22;68671;50.084;8.794;2023-07-20T05:30:23;21.40;99.90
9847;DHT22;68671;50.084;8.794;2023-07-20T05:32:52;21.30;99.90
9847;DHT22;68671;50.084;8.794;2023-07-20T05:35:20;21.30;99.90
9847;DHT22;68671;50.084;8.794;2023-07-20T05:37:48;21.30;99.90
9847;DHT22;68671;50.084;8.794;2023-07-20T05:40:15;21.20;99.90
9847;DHT22;68671;50.084;8.794;2023-07-20T05:42:44;21.20;99.90
9847;DHT22;68671;50.084;8.794;2023-07-20T05:45:11;21.20;99.90
9847;DHT22;68671;50.084;8.794;2023-07-20T05:47:41;21.20;99.90
9847;DHT22;68671;50.084;8.794;2023-07-20T05:50:08;21.20;99.90
9847;DHT22;68671;50.084;8.794;2023-07-20T05:52:36;21.20;99.90
9847;DHT22;68671;50.084;8.794;2023-07-20T05:55:05;21.20;99.90
9847;DHT22;68671;50.084;8.794;2023-07-20T05:57:32;21.20;99.90
9847;DHT22;68671;50.084;8.794;2023-07-20T05:59:59;21.30;99.90
9847;DHT22;68671;50.084;8.794;2023-07-20T06:02:26;21.30;99.90
9847;DHT22;68671;50.084;8.794;2023-07-20T06:04:54;21.40;99.90
9847;DHT22;68671;50.084;8.794;2023-07-20T06:07:21;21.50;99.90
9847;DHT22;68671;50.084;8.794;2023-07-20T06:09:48;21.70;99.90
9847;DHT22;68671;50.084;8.794;2023-07-20T06:12:15;22.10;99.90
9847;DHT22;68671;50.084;8.794;2023-07-20T06:14:42;22.60;99.90
9847;DHT22;68671;50.084;8.794;2023-07-20T06:17:09;23.10;99.90
9847;DHT22;68671;50.084;8.794;2023-07-20T06:19:36;23.70;99.90
9847;DHT22;68671;50.084;8.794;2023-07-20T06:22:05;24.30;99.90
9847;DHT22;68671;50.084;8.794;2023-07-20T06:24:32;24.80;99.90
9847;DHT22;68671;50.084;8.794;2023-07-20T06:26:58;25.30;99.90
9847;DHT22;68671;50.084;8.794;2023-07-20T06:29:25;25.60;99.90
9847;DHT22;68671;50.084;8.794;2023-07-20T06:31:52;25.80;99.90
9847;DHT22;68671;50.084;8.794;2023-07-20T06:34:19;25.90;98.80
9847;DHT22;68671;50.084;8.794;2023-07-20T06:36:46;25.80;97.80
9847;DHT22;68671;50.084;8.794;2023-07-20T06:39:15;25.70;97.20
9847;DHT22;68671;50.084;8.794;2023-07-20T06:41:42;25.70;97.60
9847;DHT22;68671;50.084;8.794;2023-07-20T06:44:09;25.90;98.00
9847;DHT22;68671;50.084;8.794;2023-07-20T06:46:36;26.00;96.70
9847;DHT22;68671;50.084;8.794;2023-07-20T06:49:06;26.20;96.10
9847;DHT22;68671;50.084;8.794;2023-07-20T06:51:33;26.20;95.40
9847;DHT22;68671;50.084;8.794;2023-07-20T06:54:00;26.20;95.10
9847;DHT22;68671;50.084;8.794;2023-07-20T06:56:31;26.10;95.30
9847;DHT22;68671;50.084;8.794;2023-07-20T06:58:58;26.00;95.50
9847;DHT22;68671;50.084;8.794;2023-07-20T07:01:27;26.00;95.70
9847;DHT22;68671;50.084;8.794;2023-07-20T07:03:54;26.10;96.40
9847;DHT22;68671;50.084;8.794;2023-07-20T07:06:21;26.30;96.50
9847;DHT22;68671;50.084;8.794;2023-07-20T07:08:49;26.60;96.70
9847;DHT22;68671;50.084;8.794;2023-07-20T07:11:16;27.10;95.30
9847;DHT22;68671;50.084;8.794;2023-07-20T07:13:44;27.50;94.20
9847;DHT22;68671;50.084;8.794;2023-07-20T07:16:12;27.80;92.30
9847;DHT22;68671;50.084;8.794;2023-07-20T07:18:40;27.90;91.00
9847;DHT22;68671;50.084;8.794;2023-07-20T07:21:07;27.90;90.50
9847;DHT22;68671;50.084;8.794;2023-07-20T07:23:34;27.80;90.00
9847;DHT22;68671;50.084;8.794;2023-07-20T07:26:01;27.70;89.40
9847;DHT22;68671;50.084;8.794;2023-07-20T07:28:28;27.60;89.30
9847;DHT22;68671;50.084;8.794;2023-07-20T07:30:57;27.50;88.80
9847;DHT22;68671;50.084;8.794;2023-07-20T07:33:24;27.40;88.70
9847;DHT22;68671;50.084;8.794;2023-07-20T07:35:51;27.30;87.90
9847;DHT22;68671;50.084;8.794;2023-07-20T07:38:19;27.20;88.30
9847;DHT22;68671;50.084;8.794;2023-07-20T07:40:46;27.10;86.20
9847;DHT22;68671;50.084;8.794;2023-07-20T07:43:13;27.00;87.00
9847;DHT22;68671;50.084;8.794;2023-07-20T07:45:40;27.10;89.70
9847;DHT22;68671;50.084;8.794;2023-07-20T07:48:08;27.10;87.20
9847;DHT22;68671;50.084;8.794;2023-07-20T07:50:38;27.30;90.10
9847;DHT22;68671;50.084;8.794;2023-07-20T07:53:05;27.70;89.10
9847;DHT22;68671;50.084;8.794;2023-07-20T07:55:32;28.40;88.00
9847;DHT22;68671;50.084;8.794;2023-07-20T07:57:59;29.40;86.10
9847;DHT22;68671;50.084;8.794;2023-07-20T08:00:26;30.30;82.90
9847;DHT22;68671;50.084;8.794;2023-07-20T08:02:53;31.40;79.60
9847;DHT22;68671;50.084;8.794;2023-07-20T08:05:22;32.30;75.20
9847;DHT22;68671;50.084;8.794;2023-07-20T08:07:49;33.00;69.70
9847;DHT22;68671;50.084;8.794;2023-07-20T08:10:16;33.50;67.20
9847;DHT22;68671;50.084;8.794;2023-07-20T08:12:43;34.00;63.10
9847;DHT22;68671;50.084;8.794;2023-07-20T08:15:11;34.00;60.40
9847;DHT22;68671;50.084;8.794;2023-07-20T08:17:40;33.90;58.10
9847;DHT22;68671;50.084;8.794;2023-07-20T08:20:08;33.60;57.30
9847;DHT22;68671;50.084;8.794;2023-07-20T08:22:39;33.30;57.80
9847;DHT22;68671;50.084;8.794;2023-07-20T08:25:07;33.20;59.50
9847;DHT22;68671;50.084;8.794;2023-07-20T08:27:34;33.50;59.20
9847;DHT22;68671;50.084;8.794;2023-07-20T08:30:01;34.10;58.00
9847;DHT22;68671;50.084;8.794;2023-07-20T08:32:28;34.30;56.60
9847;DHT22;68671;50.084;8.794;2023-07-20T08:34:55;34.30;54.90
9847;DHT22;68671;50.084;8.794;2023-07-20T08:37:22;34.00;54.20
9847;DHT22;68671;50.084;8.794;2023-07-20T08:39:51;33.50;54.00
9847;DHT22;68671;50.084;8.794;2023-07-20T08:42:18;32.90;54.20
9847;DHT22;68671;50.084;8.794;2023-07-20T08:44:45;32.20;55.10
9847;DHT22;68671;50.084;8.794;2023-07-20T08:47:14;31.60;55.80
9847;DHT22;68671;50.084;8.794;2023-07-20T08:49:42;30.90;56.50
9847;DHT22;68671;50.084;8.794;2023-07-20T08:52:09;30.20;57.80
9847;DHT22;68671;50.084;8.794;2023-07-20T08:54:37;29.60;59.10
9847;DHT22;68671;50.084;8.794;2023-07-20T08:57:06;29.20;59.40
9847;DHT22;68671;50.084;8.794;2023-07-20T08:59:36;28.90;59.90
9847;DHT22;68671;50.084;8.794;2023-07-20T09:02:04;28.70;60.80
9847;DHT22;68671;50.084;8.794;2023-07-20T09:04:31;28.50;61.30
9847;DHT22;68671;50.084;8.794;2023-07-20T09:06:58;28.50;61.70
9847;DHT22;68671;50.084;8.794;2023-07-20T09:09:25;28.40;62.30
9847;DHT22;68671;50.084;8.794;2023-07-20T09:11:52;28.30;62.60
9847;DHT22;68671;50.084;8.794;2023-07-20T09:14:23;28.20;62.90
9847;DHT22;68671;50.084;8.794;2023-07-20T09:16:52;28.00;63.70
9847;DHT22;68671;50.084;8.794;2023-07-20T09:19:20;27.70;63.80
9847;DHT22;68671;50.084;8.794;2023-07-20T09:21:49;27.50;64.50
9847;DHT22;68671;50.084;8.794;2023-07-20T09:24:18;27.30;64.60
9847;DHT22;68671;50.084;8.794;2023-07-20T09:26:46;27.10;64.10
9847;DHT22;68671;50.084;8.794;2023-07-20T09:29:14;27.00;64.10
9847;DHT22;68671;50.084;8.794;2023-07-20T09:31:58;26.80;63.80
9847;DHT22;68671;50.084;8.794;2023-07-20T09:34:26;26.80;64.10
9847;DHT22;68671;50.084;8.794;2023-07-20T09:36:53;26.70;64.00
9847;DHT22;68671;50.084;8.794;2023-07-20T09:39:20;26.60;64.20
9847;DHT22;68671;50.084;8.794;2023-07-20T09:41:47;26.60;64.70
9847;DHT22;68671;50.084;8.794;2023-07-20T09:44:14;26.60;64.20
9847;DHT22;68671;50.084;8.794;2023-07-20T09:46:43;26.40;64.80
9847;DHT22;68671;50.084;8.794;2023-07-20T09:49:12;26.40;65.00
9847;DHT22;68671;50.084;8.794;2023-07-20T09:51:39;26.40;64.40
9847;DHT22;68671;50.084;8.794;2023-07-20T09:54:07;26.40;62.90
9847;DHT22;68671;50.084;8.794;2023-07-20T09:56:35;26.40;60.60
9847;DHT22;68671;50.084;8.794;2023-07-20T09:59:02;26.40;60.30
9847;DHT22;68671;50.084;8.794;2023-07-20T10:01:29;26.40;60.20
9847;DHT22;68671;50.084;8.794;2023-07-20T10:03:59;26.40;59.60
9847;DHT22;68671;50.084;8.794;2023-07-20T10:06:33;26.40;58.90
9847;DHT22;68671;50.084;8.794;2023-07-20T10:09:02;26.40;59.10
9847;DHT22;68671;50.084;8.794;2023-07-20T10:11:34;26.40;59.80
9847;DHT22;68671;50.084;8.794;2023-07-20T10:14:03;26.30;61.60
9847;DHT22;68671;50.084;8.794;2023-07-20T10:16:34;26.30;61.10
9847;DHT22;68671;50.084;8.794;2023-07-20T10:19:05;26.30;60.40
9847;DHT22;68671;50.084;8.794;2023-07-20T10:21:37;26.30;61.80
9847;DHT22;68671;50.084;8.794;2023-07-20T10:24:07;26.30;63.40
9847;DHT22;68671;50.084;8.794;2023-07-20T10:26:37;26.20;64.10
9847;DHT22;68671;50.084;8.794;2023-07-20T10:29:07;26.30;64.10
9847;DHT22;68671;50.084;8.794;2023-07-20T10:31:35;26.30;64.20
9847;DHT22;68671;50.084;8.794;2023-07-20T10:34:03;26.30;64.20
9847;DHT22;68671;50.084;8.794;2023-07-20T10:36:43;26.30;63.90
9847;DHT22;68671;50.084;8.794;2023-07-20T10:42:18;26.20;62.90
9847;DHT22;68671;50.084;8.794;2023-07-20T10:47:45;26.20;64.10
9847;DHT22;68671;50.084;8.794;2023-07-20T10:50:12;26.20;62.90
9847;DHT22;68671;50.084;8.794;2023-07-20T10:52:40;26.20;62.60
9847;DHT22;68671;50.084;8.794;2023-07-20T10:55:16;26.20;61.60
9847;DHT22;68671;50.084;8.794;2023-07-20T10:57:43;26.10;61.40
9847;DHT22;68671;50.084;8.794;2023-07-20T11:00:12;26.10;60.30
9847;DHT22;68671;50.084;8.794;2023-07-20T11:02:47;26.10;60.00
9847;DHT22;68671;50.084;8.794;2023-07-20T11:05:37;26.10;60.00
9847;DHT22;68671;50.084;8.794;2023-07-20T11:08:05;26.00;60.10
9847;DHT22;68671;50.084;8.794;2023-07-20T11:10:34;26.00;59.40
9847;DHT22;68671;50.084;8.794;2023-07-20T11:13:17;26.00;60.00
9847;DHT22;68671;50.084;8.794;2023-07-20T11:15:45;26.10;60.50
9847;DHT22;68671;50.084;8.794;2023-07-20T11:18:13;26.20;60.90
9847;DHT22;68671;50.084;8.794;2023-07-20T11:20:40;26.20;61.30
9847;DHT22;68671;50.084;8.794;2023-07-20T11:23:08;26.30;61.80
9847;DHT22;68671;50.084;8.794;2023-07-20T11:25:40;26.30;61.70
9847;DHT22;68671;50.084;8.794;2023-07-20T11:28:07;26.30;60.80
9847;DHT22;68671;50.084;8.794;2023-07-20T11:30:36;26.00;60.10
9847;DHT22;68671;50.084;8.794;2023-07-20T11:33:03;25.80;61.40
9847;DHT22;68671;50.084;8.794;2023-07-20T11:35:30;25.50;60.70
9847;DHT22;68671;50.084;8.794;2023-07-20T11:37:59;25.50;60.30
9847;DHT22;68671;50.084;8.794;2023-07-20T11:40:26;25.50;60.00
9847;DHT22;68671;50.084;8.794;2023-07-20T11:42:55;25.60;59.80
9847;DHT22;68671;50.084;8.794;2023-07-20T11:45:22;25.80;59.40
9847;DHT22;68671;50.084;8.794;2023-07-20T11:47:48;25.80;59.20
9847;DHT22;68671;50.084;8.794;2023-07-20T11:50:15;25.90;59.10
9847;DHT22;68671;50.084;8.794;2023-07-20T11:52:43;26.10;57.90
9847;DHT22;68671;50.084;8.794;2023-07-20T11:55:11;26.20;58.80
9847;DHT22;68671;50.084;8.794;2023-07-20T11:57:38;26.40;59.00
9847;DHT22;68671;50.084;8.794;2023-07-20T12:00:08;26.40;59.00
9847;DHT22;68671;50.084;8.794;2023-07-20T12:02:38;26.40;59.20
9847;DHT22;68671;50.084;8.794;2023-07-20T12:05:06;26.30;59.70
9847;DHT22;68671;50.084;8.794;2023-07-20T12:07:36;26.30;59.70
9847;DHT22;68671;50.084;8.794;2023-07-20T12:10:05;26.30;58.90
9847;DHT22;68671;50.084;8.794;2023-07-20T12:12:32;26.20;58.90
9847;DHT22;68671;50.084;8.794;2023-07-20T12:15:17;26.10;59.30
9847;DHT22;68671;50.084;8.794;2023-07-20T12:17:48;26.00;58.50
9847;DHT22;68671;50.084;8.794;2023-07-20T12:20:25;26.10;58.10
9847;DHT22;68671;50.084;8.794;2023-07-20T12:22:52;26.20;57.70
9847;DHT22;68671;50.084;8.794;2023-07-20T12:25:20;26.20;57.70
9847;DHT22;68671;50.084;8.794;2023-07-20T12:27:50;26.30;57.70
9847;DHT22;68671;50.084;8.794;2023-07-20T12:30:18;26.30;57.90
9847;DHT22;68671;50.084;8.794;2023-07-20T12:32:45;26.20;57.90
9847;DHT22;68671;50.084;8.794;2023-07-20T12:35:12;26.30;57.50
9847;DHT22;68671;50.084;8.794;2023-07-20T12:37:40;26.40;57.40
9847;DHT22;68671;50.084;8.794;2023-07-20T12:40:08;26.50;56.20
9847;DHT22;68671;50.084;8.794;2023-07-20T12:42:36;26.50;55.90
9847;DHT22;68671;50.084;8.794;2023-07-20T12:45:05;26.50;55.70
9847;DHT22;68671;50.084;8.794;2023-07-20T12:47:34;26.40;56.40
9847;DHT22;68671;50.084;8.794;2023-07-20T12:50:00;26.50;55.60
9847;DHT22;68671;50.084;8.794;2023-07-20T12:52:29;26.50;55.20
9847;DHT22;68671;50.084;8.794;2023-07-20T12:54:57;26.50;55.30
9847;DHT22;68671;50.084;8.794;2023-07-20T12:57:24;26.40;55.60
9847;DHT22;68671;50.084;8.794;2023-07-20T12:59:51;26.50;55.40
9847;DHT22;68671;50.084;8.794;2023-07-20T13:02:18;26.60;55.20
9847;DHT22;68671;50.084;8.794;2023-07-20T13:04:46;26.70;55.00
9847;DHT22;68671;50.084;8.794;2023-07-20T13:07:13;26.80;55.00
9847;DHT22;68671;50.084;8.794;2023-07-20T13:09:40;27.00;55.10
9847;DHT22;68671;50.084;8.794;2023-07-20T13:12:08;27.10;55.00
9847;DHT22;68671;50.084;8.794;2023-07-20T13:14:35;27.10;54.70
9847;DHT22;68671;50.084;8.794;2023-07-20T13:17:02;27.10;54.20
9847;DHT22;68671;50.084;8.794;2023-07-20T13:19:29;27.00;54.70
9847;DHT22;68671;50.084;8.794;2023-07-20T13:21:57;27.00;54.50
9847;DHT22;68671;50.084;8.794;2023-07-20T13:24:25;27.10;54.40
9847;DHT22;68671;50.084;8.794;2023-07-20T13:26:51;27.10;54.40
9847;DHT22;68671;50.084;8.794;2023-07-20T13:29:18;27.20;54.40
9847;DHT22;68671;50.084;8.794;2023-07-20T13:31:45;27.30;54.00
9847;DHT22;68671;50.084;8.794;2023-07-20T13:34:12;27.30;53.80
9847;DHT22;68671;50.084;8.794;2023-07-20T13:36:39;27.30;54.10
9847;DHT22;68671;50.084;8.794;2023-07-20T13:39:09;27.30;54.40
9847;DHT22;68671;50.084;8.794;2023-07-20T13:41:35;27.30;54.40
9847;DHT22;68671;50.084;8.794;2023-07-20T13:44:03;27.40;54.60
9847;DHT22;68671;50.084;8.794;2023-07-20T13:46:30;27.50;54.10
9847;DHT22;68671;50.084;8.794;2023-07-20T13:48:57;27.60;53.80
9847;DHT22;68671;50.084;8.794;2023-07-20T13:51:23;27.60;53.30
9847;DHT22;68671;50.084;8.794;2023-07-20T13:53:50;27.70;53.00
9847;DHT22;68671;50.084;8.794;2023-07-20T13:56:19;27.70;53.20
9847;DHT22;68671;50.084;8.794;2023-07-20T13:58:45;27.80;53.60
9847;DHT22;68671;50.084;8.794;2023-07-20T14:01:12;27.80;53.10
9847;DHT22;68671;50.084;8.794;2023-07-20T14:03:39;27.80;52.80
9847;DHT22;68671;50.084;8.794;2023-07-20T14:06:06;27.70;52.60
9847;DHT22;68671;50.084;8.794;2023-07-20T14:08:33;27.70;53.10
9847;DHT22;68671;50.084;8.794;2023-07-20T14:11:00;27.70;53.00
9847;DHT22;68671;50.084;8.794;2023-07-20T14:13:28;27.80;53.10
9847;DHT22;68671;50.084;8.794;2023-07-20T14:15:56;27.80;52.90
9847;DHT22;68671;50.084;8.794;2023-07-20T14:18:23;27.80;53.20
9847;DHT22;68671;50.084;8.794;2023-07-20T14:20:50;27.80;53.10
9847;DHT22;68671;50.084;8.794;2023-07-20T14:23:17;27.90;52.90
9847;DHT22;68671;50.084;8.794;2023-07-20T14:25:44;27.90;52.50
9847;DHT22;68671;50.084;8.794;2023-07-20T14:28:11;27.90;52.60
9847;DHT22;68671;50.084;8.794;2023-07-20T14:30:46;27.90;52.70
9847;DHT22;68671;50.084;8.794;2023-07-20T14:33:14;28.00;53.10
9847;DHT22;68671;50.084;8.794;2023-07-20T14:35:41;28.00;52.80
9847;DHT22;68671;50.084;8.794;2023-07-20T14:38:08;28.00;52.80
9847;DHT22;68671;50.084;8.794;2023-07-20T14:40:35;28.10;53.20
9847;DHT22;68671;50.084;8.794;2023-07-20T14:43:05;28.10;53.10
9847;DHT22;68671;50.084;8.794;2023-07-20T14:46:05;28.20;52.80
9847;DHT22;68671;50.084;8.794;2023-07-20T14:49:57;28.00;52.80
9847;DHT22;68671;50.084;8.794;2023-07-20T14:53:04;28.00;52.80
9847;DHT22;68671;50.084;8.794;2023-07-20T14:56:08;27.70;52.70
9847;DHT22;68671;50.084;8.794;2023-07-20T14:59:01;27.60;53.10
9847;DHT22;68671;50.084;8.794;2023-07-20T15:09:00;27.70;53.10
9847;DHT22;68671;50.084;8.794;2023-07-20T15:15:46;27.80;53.80
9847;DHT22;68671;50.084;8.794;2023-07-20T15:18:48;27.80;53.60
9847;DHT22;68671;50.084;8.794;2023-07-20T15:21:44;27.80;53.40
9847;DHT22;68671;50.084;8.794;2023-07-20T15:34:43;27.70;53.30
9847;DHT22;68671;50.084;8.794;2023-07-20T15:37:28;27.70;53.80
9847;DHT22;68671;50.084;8.794;2023-07-20T15:40:37;27.70;54.00
9847;DHT22;68671;50.084;8.794;2023-07-20T15:43:45;27.70;53.60
9847;DHT22;68671;50.084;8.794;2023-07-20T15:46:53;27.70;53.60
9847;DHT22;68671;50.084;8.794;2023-07-20T15:49:45;27.70;53.90
9847;DHT22;68671;50.084;8.794;2023-07-20T15:52:21;27.80;53.60
9847;DHT22;68671;50.084;8.794;2023-07-20T15:55:03;27.80;53.50
9847;DHT22;68671;50.084;8.794;2023-07-20T15:57:34;27.80;53.30
9847;DHT22;68671;50.084;8.794;2023-07-20T16:00:20;27.70;53.00
9847;DHT22;68671;50.084;8.794;2023-07-20T16:02:59;27.70;53.50
9847;DHT22;68671;50.084;8.794;2023-07-20T16:05:34;27.60;53.10
9847;DHT22;68671;50.084;8.794;2023-07-20T16:08:19;27.50;53.00
9847;DHT22;68671;50.084;8.794;2023-07-20T16:10:51;27.40;52.90
9847;DHT22;68671;50.084;8.794;2023-07-20T16:13:31;27.40;53.20
9847;DHT22;68671;50.084;8.794;2023-07-20T16:16:16;27.30;53.30
9847;DHT22;68671;50.084;8.794;2023-07-20T16:18:51;27.30;52.90
9847;DHT22;68671;50.084;8.794;2023-07-20T16:21:32;27.30;52.50
9847;DHT22;68671;50.084;8.794;2023-07-20T16:24:10;27.30;52.50
9847;DHT22;68671;50.084;8.794;2023-07-20T16:26:47;27.30;52.80
9847;DHT22;68671;50.084;8.794;2023-07-20T16:29:16;27.20;53.00
9847;DHT22;68671;50.084;8.794;2023-07-20T16:31:46;27.20;53.00